Time,TemperatureF,DewpointF,PressureIn,WindDirection,WindDirectionDegrees,WindSpeedMPH,WindSpeedGustMPH,Humidity,HourlyPrecipIn,Conditions,Clouds,dailyrainin,SoftwareType,DateUTC
2013-09-15 00:03:00,-999.0,-99.9,-100.00,SW,216,10.0,15.0,-999,-99.99,,,-99.99,,2013-09-15 04:03:00,
2013-09-15 00:14:00,63.0,-99.9,-100.00,SW,216,10.0,15.0,-999,-99.99,,,-99.99,,2013-09-15 04:14:00,
2013-09-15 00:24:00,63.0,-99.9,-100.00,SW,216,10.0,15.0,-999,-99.99,,,-99.99,,2013-09-15 04:24:00,
2013-09-15 00:34:00,63.0,-99.9,-100.00,SW,216,10.0,15.0,-999,-99.99,,,-99.99,,2013-09-15 04:34:00,
2013-09-15 00:40:00,63.0,-99.9,-100.00,SW,220,13.0,16.0,-999,-99.99,,,-99.99,,2013-09-15 04:40:00,
2013-09-15 01:23:00,63.0,-99.9,-100.00,SW,220,13.0,16.0,-999,-99.99,,,-99.99,,2013-09-15 05:23:00,
2013-09-15 01:34:00,63.0,-99.9,-100.00,SW,220,13.0,16.0,-999,-99.99,,,-99.99,,2013-09-15 05:34:00,
2013-09-15 01:40:00,63.0,-99.9,-100.00,SW,228,11.0,14.0,-999,-99.99,,,-99.99,,2013-09-15 05:40:00,
2013-09-15 02:12:00,63.0,-99.9,-100.00,SW,228,11.0,14.0,-999,-99.99,,,-99.99,,2013-09-15 06:12:00,
2013-09-15 02:22:00,63.0,-99.9,-100.00,SW,228,11.0,14.0,-999,-99.99,,,-99.99,,2013-09-15 06:22:00,
2013-09-15 02:33:00,63.0,-99.9,-100.00,SW,228,11.0,14.0,-999,-99.99,,,-99.99,,2013-09-15 06:33:00,
2013-09-15 02:40:00,63.0,-99.9,-100.00,SW,231,12.0,15.0,-999,-99.99,,,-99.99,,2013-09-15 06:40:00,
2013-09-15 03:22:00,63.0,-99.9,-100.00,SW,231,12.0,15.0,-999,-99.99,,,-99.99,,2013-09-15 07:22:00,
2013-09-15 03:33:00,63.0,-99.9,-100.00,SW,231,12.0,15.0,-999,-99.99,,,-99.99,,2013-09-15 07:33:00,
2013-09-15 03:40:00,62.0,-99.9,-100.00,West,261,20.0,24.0,-999,-99.99,,,-99.99,,2013-09-15 07:40:00,
2013-09-15 04:12:00,62.0,-99.9,-100.00,West,261,20.0,24.0,-999,-99.99,,,-99.99,,2013-09-15 08:12:00,
2013-09-15 04:22:00,62.0,-99.9,-100.00,West,261,20.0,24.0,-999,-99.99,,,-99.99,,2013-09-15 08:22:00,
2013-09-15 04:32:00,62.0,-99.9,-100.00,West,261,20.0,24.0,-999,-99.99,,,-99.99,,2013-09-15 08:32:00,
2013-09-15 04:40:00,60.0,-99.9,-100.00,West,268,12.0,16.0,-999,-99.99,,,-99.99,,2013-09-15 08:40:00,
2013-09-15 05:12:00,60.0,-99.9,-100.00,West,268,12.0,16.0,-999,-99.99,,,-99.99,,2013-09-15 09:12:00,
2013-09-15 05:22:00,60.0,-99.9,-100.00,West,268,12.0,16.0,-999,-99.99,,,-99.99,,2013-09-15 09:22:00,
2013-09-15 05:33:00,60.0,-99.9,-100.00,West,268,12.0,16.0,-999,-99.99,,,-99.99,,2013-09-15 09:33:00,
2013-09-15 05:40:00,60.0,-99.9,-100.00,NW,326,5.0,7.0,-999,-99.99,,,-99.99,,2013-09-15 09:40:00,
2013-09-15 06:13:00,60.0,-99.9,-100.00,NW,326,5.0,7.0,-999,-99.99,,,-99.99,,2013-09-15 10:13:00,
2013-09-15 06:23:00,60.0,-99.9,-100.00,NW,326,5.0,7.0,-999,-99.99,,,-99.99,,2013-09-15 10:23:00,
2013-09-15 06:33:00,60.0,-99.9,-100.00,NW,326,5.0,7.0,-999,-99.99,,,-99.99,,2013-09-15 10:33:00,
2013-09-15 06:40:00,58.0,-99.9,-100.00,NNW,334,1.0,5.0,-999,-99.99,,,-99.99,,2013-09-15 10:40:00,
2013-09-15 07:12:00,58.0,-99.9,-100.00,NNW,334,1.0,5.0,-999,-99.99,,,-99.99,,2013-09-15 11:12:00,
2013-09-15 07:22:00,58.0,-99.9,-100.00,NNW,334,1.0,5.0,-999,-99.99,,,-99.99,,2013-09-15 11:22:00,
2013-09-15 07:33:00,58.0,-99.9,-100.00,NNW,334,1.0,5.0,-999,-99.99,,,-99.99,,2013-09-15 11:33:00,
2013-09-15 07:40:00,58.0,-99.9,-100.00,North,-999,0.0,2.0,-999,-99.99,,,-99.99,,2013-09-15 11:40:00,
2013-09-15 08:12:00,58.0,-99.9,-100.00,North,-999,0.0,2.0,-999,-99.99,,,-99.99,,2013-09-15 12:12:00,
2013-09-15 08:22:00,58.0,-99.9,-100.00,North,-999,0.0,2.0,-999,-99.99,,,-99.99,,2013-09-15 12:22:00,
2013-09-15 08:32:00,58.0,-99.9,-100.00,North,-999,0.0,2.0,-999,-99.99,,,-99.99,,2013-09-15 12:32:00,
2013-09-15 08:40:00,60.0,-99.9,-100.00,WNW,283,7.0,9.0,-999,-99.99,,,-99.99,,2013-09-15 12:40:00,
2013-09-15 09:11:00,60.0,-99.9,-100.00,WNW,283,7.0,9.0,-999,-99.99,,,-99.99,,2013-09-15 13:11:00,
2013-09-15 09:22:00,60.0,-99.9,-100.00,WNW,283,7.0,9.0,-999,-99.99,,,-99.99,,2013-09-15 13:22:00,
2013-09-15 09:32:00,60.0,-99.9,-100.00,WNW,283,7.0,9.0,-999,-99.99,,,-99.99,,2013-09-15 13:32:00,
2013-09-15 10:22:00,59.0,-99.9,-100.00,West,270,4.0,5.0,-999,-99.99,,,-99.99,,2013-09-15 14:22:00,
2013-09-15 14:40:00,57.0,-99.9,-100.00,NNW,337,5.0,12.0,-999,-99.99,,,-99.99,,2013-09-15 18:40:00,
2013-09-15 15:22:00,57.0,-99.9,-100.00,NNW,337,5.0,12.0,-999,-99.99,,,-99.99,,2013-09-15 19:22:00,
2013-09-15 15:32:00,57.0,-99.9,-100.00,NNW,337,5.0,12.0,-999,-99.99,,,-99.99,,2013-09-15 19:32:00,
2013-09-15 16:11:00,58.0,-99.9,-100.00,NNW,341,12.0,19.0,-999,-99.99,,,-99.99,,2013-09-15 20:11:00,
2013-09-15 16:22:00,58.0,-99.9,-100.00,NNW,341,12.0,19.0,-999,-99.99,,,-99.99,,2013-09-15 20:22:00,
2013-09-15 16:40:00,55.0,-99.9,-100.00,North,349,8.0,21.0,-999,-99.99,,,-99.99,,2013-09-15 20:40:00,
2013-09-15 16:42:00,57.0,-99.9,-100.00,North,353,12.0,27.0,-999,-99.99,,,-99.99,,2013-09-15 20:42:00,
2013-09-15 16:53:00,57.0,-99.9,-100.00,North,353,12.0,27.0,-999,-99.99,,,-99.99,,2013-09-15 20:53:00,
2013-09-15 17:02:00,57.0,-99.9,-100.00,North,353,12.0,27.0,-999,-99.99,,,-99.99,,2013-09-15 21:02:00,
2013-09-15 17:22:00,55.0,-99.9,-100.00,North,349,8.0,21.0,-999,-99.99,,,-99.99,,2013-09-15 21:22:00,
2013-09-15 17:34:00,55.0,-99.9,-100.00,North,349,8.0,21.0,-999,-99.99,,,-99.99,,2013-09-15 21:34:00,
2013-09-15 18:14:00,54.0,-99.9,-100.00,North,355,11.0,21.0,-999,-99.99,,,-99.99,,2013-09-15 22:14:00,
2013-09-15 18:23:00,54.0,-99.9,-100.00,North,355,11.0,24.0,-999,-99.99,,,-99.99,,2013-09-15 22:23:00,
2013-09-15 18:33:00,54.0,-99.9,-100.00,North,355,11.0,24.0,-999,-99.99,,,-99.99,,2013-09-15 22:33:00,
2013-09-15 18:54:00,54.0,-99.9,-100.00,North,355,11.0,24.0,-999,-99.99,,,-99.99,,2013-09-15 22:54:00,
2013-09-15 19:03:00,54.0,-99.9,-100.00,North,355,11.0,24.0,-999,-99.99,,,-99.99,,2013-09-15 23:03:00,
2013-09-15 19:22:00,53.0,-99.9,-100.00,NNW,334,10.0,16.0,-999,-99.99,,,-99.99,,2013-09-15 23:22:00,
2013-09-15 19:53:00,52.0,-99.9,-100.00,NNW,348,8.0,20.0,-999,-99.99,,,-99.99,,2013-09-15 23:53:00,
2013-09-15 20:22:00,52.0,-99.9,-100.00,NNW,348,8.0,20.0,-999,-99.99,,,-99.99,,2013-09-16 00:22:00,
2013-09-15 20:32:00,52.0,-99.9,-100.00,NNW,348,8.0,20.0,-999,-99.99,,,-99.99,,2013-09-16 00:32:00,
2013-09-15 20:42:00,52.0,-99.9,-100.00,NNW,348,8.0,20.0,-999,-99.99,,,-99.99,,2013-09-16 00:42:00,
2013-09-15 20:52:00,52.0,-99.9,-100.00,NNW,348,8.0,20.0,-999,-99.99,,,-99.99,,2013-09-16 00:52:00,
2013-09-15 21:12:00,50.0,-99.9,-100.00,North,353,8.0,19.0,-999,-99.99,,,-99.99,,2013-09-16 01:12:00,
2013-09-15 21:22:00,50.0,-99.9,-100.00,North,353,8.0,19.0,-999,-99.99,,,-99.99,,2013-09-16 01:22:00,
2013-09-15 21:40:00,49.0,-99.9,-100.00,North,356,5.0,11.0,-999,-99.99,,,-99.99,,2013-09-16 01:40:00,
2013-09-15 22:12:00,49.0,-99.9,-100.00,North,356,5.0,11.0,-999,-99.99,,,-99.99,,2013-09-16 02:12:00,
2013-09-15 22:22:00,49.0,-99.9,-100.00,North,356,5.0,11.0,-999,-99.99,,,-99.99,,2013-09-16 02:22:00,
2013-09-15 22:32:00,49.0,-99.9,-100.00,North,356,5.0,11.0,-999,-99.99,,,-99.99,,2013-09-16 02:32:00,
2013-09-15 22:40:00,49.0,-99.9,-100.00,North,353,4.0,10.0,-999,-99.99,,,-99.99,,2013-09-16 02:40:00,
2013-09-15 23:11:00,49.0,-99.9,-100.00,North,353,4.0,10.0,-999,-99.99,,,-99.99,,2013-09-16 03:11:00,
2013-09-15 23:23:00,49.0,-99.9,-100.00,North,353,4.0,10.0,-999,-99.99,,,-99.99,,2013-09-16 03:23:00,
2013-09-15 23:34:00,49.0,-99.9,-100.00,North,353,4.0,10.0,-999,-99.99,,,-99.99,,2013-09-16 03:34:00,
2013-09-15 23:40:00,48.0,-99.9,-100.00,NNW,341,3.0,14.0,-999,-99.99,,,-99.99,,2013-09-16 03:40:00,